Time;durP1;ratioP1;P1;durP2;ratioP2;P2;SDS_P1;SDS_P2;PMS_P1;PMS_P2;Temp;Humidity;BMP_temperature;BMP_pressure;BME280_temperature;BME280_humidity;BME280_pressure;Samples;Min_cycle;Max_cycle;Signal;HPM_P1;HPM_P2
2021/11/14 00:00:12;;;;;;;30.23;15.90;;;6.40;99.90;;;;;;5017921;28;20489;-62
2021/11/14 00:02:38;;;;;;;31.63;15.37;;;6.40;99.90;;;;;;5018272;28;20435;-62
2021/11/14 00:05:05;;;;;;;31.33;16.13;;;6.40;99.90;;;;;;5010391;28;20430;-61
2021/11/14 00:07:31;;;;;;;35.27;16.70;;;6.40;99.90;;;;;;5017832;28;20192;-61
2021/11/14 00:09:57;;;;;;;39.30;16.73;;;6.40;99.90;;;;;;5019854;28;20438;-62
2021/11/14 00:12:23;;;;;;;36.17;16.57;;;6.40;99.90;;;;;;5015032;28;21139;-62
2021/11/14 00:14:48;;;;;;;31.40;16.50;;;6.40;99.90;;;;;;5014411;28;20187;-62
2021/11/14 00:17:14;;;;;;;44.07;18.30;;;6.40;99.90;;;;;;5014579;28;20687;-62
2021/11/14 00:19:40;;;;;;;44.97;18.33;;;6.40;99.90;;;;;;5015937;28;20694;-62
2021/11/14 00:22:06;;;;;;;45.63;17.80;;;6.40;99.90;;;;;;5024171;28;20271;-62
2021/11/14 00:24:32;;;;;;;35.43;16.80;;;6.40;99.90;;;;;;5014128;28;20526;-61
2021/11/14 00:26:57;;;;;;;42.07;17.40;;;6.40;99.90;;;;;;5020449;28;20776;-61
2021/11/14 00:29:23;;;;;;;40.43;17.67;;;6.40;99.90;;;;;;5017480;28;20176;-62
2021/11/14 00:31:49;;;;;;;42.80;18.67;;;6.40;99.90;;;;;;5020696;28;20187;-62
2021/11/14 00:34:15;;;;;;;44.73;18.70;;;6.40;99.90;;;;;;5018124;28;20176;-61
2021/11/14 00:36:43;;;;;;;43.67;18.80;;;6.40;99.90;;;;;;5012989;28;20231;-62
2021/11/14 00:39:14;;;;;;;46.60;20.30;;;6.40;99.90;;;;;;5017311;28;20203;-62
2021/11/14 00:41:39;;;;;;;48.67;19.50;;;6.40;99.90;;;;;;5016891;28;21008;-62
2021/11/14 00:44:06;;;;;;;51.30;19.10;;;6.40;99.90;;;;;;5023889;28;20507;-62
2021/11/14 00:46:32;;;;;;;44.47;19.10;;;6.40;99.90;;;;;;5022262;28;20230;-62
2021/11/14 00:48:57;;;;;;;52.60;20.20;;;6.40;99.90;;;;;;5023672;28;20459;-60
2021/11/14 00:51:28;;;;;;;46.40;20.23;;;6.50;99.90;;;;;;5018339;28;20496;-61
2021/11/14 00:53:58;;;;;;;46.40;18.83;;;6.50;99.90;;;;;;5016988;28;20204;-61
2021/11/14 00:56:24;;;;;;;57.00;21.30;;;6.50;99.90;;;;;;5013571;28;20455;-62
2021/11/14 00:58:50;;;;;;;52.43;21.30;;;6.40;99.90;;;;;;5017997;28;20586;-61
2021/11/14 01:01:17;;;;;;;52.03;21.30;;;6.40;99.90;;;;;;5020040;28;20426;-62
2021/11/14 01:03:42;;;;;;;54.40;21.80;;;6.50;99.90;;;;;;5015227;28;20426;-61
2021/11/14 01:06:08;;;;;;;53.80;21.67;;;6.50;99.90;;;;;;5015816;28;20529;-62
2021/11/14 01:08:34;;;;;;;55.70;20.80;;;6.50;99.90;;;;;;5023451;28;20179;-62
2021/11/14 01:11:02;;;;;;;60.27;21.50;;;6.50;99.90;;;;;;5015691;28;20180;-63
2021/11/14 01:13:28;;;;;;;50.90;22.57;;;6.40;99.90;;;;;;5018266;28;20621;-62
2021/11/14 01:15:55;;;;;;;54.00;22.47;;;6.50;99.90;;;;;;5018965;28;20435;-61
2021/11/14 01:18:21;;;;;;;52.07;22.17;;;6.50;99.90;;;;;;5016699;28;20459;-62
2021/11/14 01:20:50;;;;;;;66.13;24.07;;;6.50;99.90;;;;;;5017037;28;20426;-61
2021/11/14 01:23:17;;;;;;;52.53;21.13;;;6.50;99.90;;;;;;5018818;28;20444;-62
2021/11/14 01:25:44;;;;;;;42.00;18.40;;;6.50;99.90;;;;;;5021478;28;21031;-61
2021/11/14 01:28:10;;;;;;;51.20;20.37;;;6.50;99.90;;;;;;5015633;28;20902;-61
2021/11/14 01:30:40;;;;;;;47.20;20.30;;;6.50;99.90;;;;;;5019350;28;20962;-61
2021/11/14 01:33:07;;;;;;;36.20;17.23;;;6.50;99.90;;;;;;5023320;28;20435;-62
2021/11/14 01:35:34;;;;;;;50.57;19.60;;;6.40;99.90;;;;;;5017545;28;20484;-62
2021/11/14 01:38:00;;;;;;;49.40;19.40;;;6.40;99.90;;;;;;5015482;28;20442;-62
2021/11/14 01:40:39;;;;;;;58.73;21.63;;;6.40;99.90;;;;;;5015225;28;20449;-62
2021/11/14 01:43:08;;;;;;;51.87;20.93;;;6.40;99.90;;;;;;5017613;28;20437;-62
2021/11/14 01:45:34;;;;;;;50.23;20.83;;;6.40;99.90;;;;;;5018073;28;20534;-62
2021/11/14 01:48:00;;;;;;;51.90;21.50;;;6.40;99.90;;;;;;5019131;28;20526;-61
2021/11/14 01:50:27;;;;;;;58.53;22.97;;;6.50;99.90;;;;;;5016675;28;20521;-63
2021/11/14 01:52:54;;;;;;;50.40;22.30;;;6.40;99.90;;;;;;5017614;28;20271;-63
2021/11/14 01:55:23;;;;;;;61.13;24.37;;;6.40;99.90;;;;;;5019444;28;20880;-61
2021/11/14 01:57:49;;;;;;;54.10;22.10;;;6.40;99.90;;;;;;5014147;28;20454;-61
2021/11/14 02:00:29;;;;;;;52.50;22.43;;;6.50;99.90;;;;;;5017902;28;20434;-62
2021/11/14 02:02:55;;;;;;;50.77;20.83;;;6.40;99.90;;;;;;5019943;28;20497;-62
2021/11/14 02:05:22;;;;;;;46.17;21.33;;;6.50;99.90;;;;;;5018290;28;20535;-62
2021/11/14 02:07:53;;;;;;;54.43;21.67;;;6.50;99.90;;;;;;5017416;28;20435;-61
2021/11/14 02:10:22;;;;;;;45.93;20.63;;;6.40;99.90;;;;;;5027292;28;20517;-62
2021/11/14 02:12:48;;;;;;;58.03;22.10;;;6.40;99.90;;;;;;5021362;28;20438;-62
2021/11/14 02:15:14;;;;;;;50.73;21.77;;;6.40;99.90;;;;;;5012957;28;21014;-62
2021/11/14 02:17:40;;;;;;;56.17;23.53;;;6.40;99.90;;;;;;5022540;28;20282;-62
2021/11/14 02:20:07;;;;;;;49.43;22.70;;;6.40;99.90;;;;;;5020252;28;20522;-62
2021/11/14 02:22:33;;;;;;;55.73;22.97;;;6.50;99.90;;;;;;5013168;28;20176;-62
2021/11/14 02:24:59;;;;;;;50.60;21.20;;;6.50;99.90;;;;;;5015381;28;20469;-62
2021/11/14 02:27:25;;;;;;;51.27;21.10;;;6.50;99.90;;;;;;5023043;28;20180;-62
2021/11/14 02:29:50;;;;;;;48.90;22.20;;;6.50;99.90;;;;;;5014472;28;21180;-62
2021/11/14 02:32:16;;;;;;;55.13;22.97;;;6.40;99.90;;;;;;5011863;28;20266;-62
2021/11/14 02:34:42;;;;;;;48.63;22.33;;;6.40;99.90;;;;;;5023444;28;20184;-63
2021/11/14 02:37:08;;;;;;;50.20;22.90;;;6.40;99.90;;;;;;5019022;28;20488;-63
2021/11/14 02:39:34;;;;;;;49.47;22.50;;;6.40;99.90;;;;;;5015137;28;20207;-63
2021/11/14 02:42:01;;;;;;;44.90;20.20;;;6.50;99.90;;;;;;5015077;28;20919;-64
2021/11/14 02:44:28;;;;;;;47.90;21.83;;;6.40;99.90;;;;;;5016306;28;20176;-61
2021/11/14 02:46:54;;;;;;;48.47;21.53;;;6.50;99.90;;;;;;5020243;28;20827;-62
2021/11/14 02:49:20;;;;;;;51.43;21.77;;;6.50;99.90;;;;;;5014735;28;20571;-62
2021/11/14 02:51:46;;;;;;;45.73;21.20;;;6.50;99.90;;;;;;5023395;28;20509;-62
2021/11/14 02:54:12;;;;;;;51.63;20.63;;;6.50;99.90;;;;;;5010246;28;20757;-61
2021/11/14 02:56:37;;;;;;;50.80;21.10;;;6.50;99.90;;;;;;5020370;28;20450;-62
2021/11/14 02:59:04;;;;;;;40.17;18.27;;;6.50;99.90;;;;;;5022620;28;20179;-62
2021/11/14 03:01:41;;;;;;;45.90;20.63;;;6.50;99.90;;;;;;5017418;28;20168;-62
2021/11/14 03:04:09;;;;;;;50.33;21.33;;;6.50;99.90;;;;;;5019905;28;20430;-62
2021/11/14 03:06:35;;;;;;;50.50;21.80;;;6.50;99.90;;;;;;5021108;28;20442;-62
2021/11/14 03:09:01;;;;;;;50.97;22.17;;;6.50;99.90;;;;;;5019936;28;20426;-62
2021/11/14 03:11:27;;;;;;;52.23;22.67;;;6.50;99.90;;;;;;5014556;28;20929;-63
2021/11/14 03:13:52;;;;;;;64.30;23.70;;;6.50;99.90;;;;;;5024316;28;20473;-62
2021/11/14 03:16:21;;;;;;;56.60;22.33;;;6.50;99.90;;;;;;5023238;28;20565;-61
2021/11/14 03:18:47;;;;;;;63.20;25.00;;;6.50;99.90;;;;;;5026062;28;20268;-62
2021/11/14 03:21:13;;;;;;;51.17;21.30;;;6.50;99.90;;;;;;5025947;28;20422;-61
2021/11/14 03:23:38;;;;;;;65.17;23.80;;;6.50;99.90;;;;;;5025547;28;20450;-61
2021/11/14 03:26:05;;;;;;;65.20;25.23;;;6.50;99.90;;;;;;5024969;28;20204;-62
2021/11/14 03:28:32;;;;;;;69.23;23.83;;;6.50;99.90;;;;;;5024971;28;20172;-62
2021/11/14 03:30:58;;;;;;;67.70;24.20;;;6.50;99.90;;;;;;5020750;28;20427;-62
2021/11/14 03:33:26;;;;;;;66.20;24.30;;;6.50;99.90;;;;;;5023578;28;21836;-62
2021/11/14 03:35:53;;;;;;;73.43;26.17;;;6.50;99.90;;;;;;5025298;28;20845;-62
2021/11/14 03:38:27;;;;;;;84.03;25.40;;;6.50;99.90;;;;;;5025843;28;20446;-62
2021/11/14 03:40:52;;;;;;;68.13;24.43;;;6.50;99.90;;;;;;5026085;28;20419;-61
2021/11/14 03:43:19;;;;;;;70.90;23.43;;;6.50;99.90;;;;;;5019356;28;20431;-62
2021/11/14 03:45:45;;;;;;;71.07;24.00;;;6.50;99.90;;;;;;5022950;28;20188;-61
2021/11/14 03:48:11;;;;;;;63.70;24.47;;;6.50;99.90;;;;;;5019662;28;20484;-62
2021/11/14 03:50:37;;;;;;;61.03;23.23;;;6.50;99.90;;;;;;5024882;28;20438;-61
2021/11/14 03:53:05;;;;;;;70.00;23.80;;;6.50;99.90;;;;;;5025158;28;21190;-61
2021/11/14 03:55:31;;;;;;;52.60;23.07;;;6.50;99.90;;;;;;5025585;28;20458;-62
2021/11/14 03:57:56;;;;;;;50.77;20.40;;;6.40;99.90;;;;;;5022499;28;20458;-62
2021/11/14 04:00:27;;;;;;;51.03;21.37;;;6.40;99.90;;;;;;5022347;28;20430;-63
2021/11/14 04:02:55;;;;;;;48.43;21.00;;;6.40;99.90;;;;;;5020323;28;20529;-61
2021/11/14 04:05:22;;;;;;;48.33;20.30;;;6.50;99.90;;;;;;5022945;28;20596;-62
2021/11/14 04:07:48;;;;;;;36.73;18.67;;;6.40;99.90;;;;;;5018870;28;20428;-61
2021/11/14 04:10:15;;;;;;;39.00;18.03;;;6.40;99.90;;;;;;5019293;28;20435;-62
2021/11/14 04:12:42;;;;;;;41.50;17.73;;;6.50;99.90;;;;;;5022083;28;20183;-61
2021/11/14 04:15:10;;;;;;;36.30;17.47;;;6.50;99.90;;;;;;5022370;28;20431;-63
2021/11/14 04:17:37;;;;;;;44.60;19.73;;;6.40;99.90;;;;;;5022165;28;21060;-62
2021/11/14 04:20:05;;;;;;;39.80;18.10;;;6.40;99.90;;;;;;5022699;28;20467;-62
2021/11/14 04:22:30;;;;;;;36.30;18.30;;;6.40;99.90;;;;;;5017211;28;20461;-61
2021/11/14 04:24:56;;;;;;;43.03;18.10;;;6.40;99.90;;;;;;5024212;28;21816;-62
2021/11/14 04:27:22;;;;;;;35.53;17.50;;;6.40;99.90;;;;;;5017741;28;20214;-62
2021/11/14 04:29:47;;;;;;;40.30;18.20;;;6.40;99.90;;;;;;5012210;28;20275;-62
2021/11/14 04:32:13;;;;;;;36.07;17.33;;;6.40;99.90;;;;;;5013865;28;20183;-62
2021/11/14 04:34:40;;;;;;;38.20;17.57;;;6.40;99.90;;;;;;5010120;28;20195;-61
2021/11/14 04:37:06;;;;;;;37.07;18.13;;;6.40;99.90;;;;;;5019402;28;21107;-62
2021/11/14 04:39:31;;;;;;;35.23;17.43;;;6.40;99.90;;;;;;5026254;28;20501;-60
2021/11/14 04:41:57;;;;;;;38.73;18.33;;;6.40;99.90;;;;;;5024594;28;20251;-62
2021/11/14 04:44:24;;;;;;;38.97;17.13;;;6.40;99.90;;;;;;5014565;28;20255;-62
2021/11/14 04:46:51;;;;;;;39.67;19.57;;;6.40;99.90;;;;;;5014384;28;20203;-63
2021/11/14 04:49:20;;;;;;;43.70;19.00;;;6.40;99.90;;;;;;5032959;28;20414;-62
2021/11/14 04:51:47;;;;;;;43.77;18.77;;;6.40;99.90;;;;;;5023387;28;20641;-62
2021/11/14 04:54:14;;;;;;;40.93;17.20;;;6.40;99.90;;;;;;5025427;28;20519;-62
2021/11/14 04:56:39;;;;;;;42.47;17.97;;;6.40;99.90;;;;;;5020681;28;20442;-61
2021/11/14 04:59:05;;;;;;;37.93;17.17;;;6.40;99.90;;;;;;5023429;28;20422;-62
2021/11/14 05:01:31;;;;;;;34.23;16.50;;;6.40;99.90;;;;;;5020985;28;20206;-60
2021/11/14 05:03:56;;;;;;;36.43;17.33;;;6.40;99.90;;;;;;5014204;28;20255;-62
2021/11/14 05:06:22;;;;;;;36.20;16.10;;;6.40;99.90;;;;;;5016555;28;20199;-62
2021/11/14 05:08:47;;;;;;;40.30;17.87;;;6.40;99.90;;;;;;5029214;28;20180;-62
2021/11/14 05:11:13;;;;;;;31.00;16.30;;;6.40;99.90;;;;;;5016670;28;20235;-62
2021/11/14 05:13:39;;;;;;;37.97;17.77;;;6.50;99.90;;;;;;5027044;28;20239;-62
2021/11/14 05:16:05;;;;;;;40.67;16.80;;;6.40;99.90;;;;;;5014985;28;22094;-61
2021/11/14 05:18:31;;;;;;;41.40;18.70;;;6.40;99.90;;;;;;5018516;28;20716;-62
2021/11/14 05:20:56;;;;;;;33.80;18.10;;;6.40;99.90;;;;;;5027962;28;20419;-61
2021/11/14 05:23:22;;;;;;;42.20;19.93;;;6.40;99.90;;;;;;5022576;28;22270;-62
2021/11/14 05:25:47;;;;;;;42.43;19.70;;;6.40;99.90;;;;;;5026285;28;20184;-61
2021/11/14 05:28:14;;;;;;;43.00;19.07;;;6.40;99.90;;;;;;5033775;28;20179;-62
2021/11/14 05:30:40;;;;;;;35.07;17.63;;;6.40;99.90;;;;;;5025904;28;20566;-60
2021/11/14 05:33:06;;;;;;;40.33;17.60;;;6.40;99.90;;;;;;5021237;28;20423;-62
2021/11/14 05:35:32;;;;;;;40.33;16.83;;;6.40;99.90;;;;;;5022709;28;20477;-61
2021/11/14 05:37:58;;;;;;;38.67;16.77;;;6.40;99.90;;;;;;5022970;28;20450;-61
2021/11/14 05:40:24;;;;;;;43.50;18.90;;;6.40;99.90;;;;;;5018819;28;20191;-62
2021/11/14 05:42:49;;;;;;;39.33;16.90;;;6.40;99.90;;;;;;5025314;28;20545;-62
2021/11/14 05:45:15;;;;;;;40.33;17.30;;;6.40;99.90;;;;;;5026157;28;20172;-61
2021/11/14 05:47:40;;;;;;;37.73;18.10;;;6.40;99.90;;;;;;5027622;28;20283;-62
2021/11/14 05:50:07;;;;;;;39.73;17.33;;;6.50;99.90;;;;;;5025791;28;20736;-62
2021/11/14 05:52:34;;;;;;;33.93;16.63;;;6.50;99.90;;;;;;5024267;28;20202;-62
2021/11/14 05:54:59;;;;;;;35.40;16.47;;;6.50;99.90;;;;;;5027142;28;20418;-61
2021/11/14 05:57:26;;;;;;;38.43;17.50;;;6.50;99.90;;;;;;5025125;28;20552;-62
2021/11/14 06:00:09;;;;;;;33.33;16.53;;;6.50;99.90;;;;;;5026322;28;20168;-61
2021/11/14 06:02:45;;;;;;;33.30;15.23;;;6.50;99.90;;;;;;5021583;28;20936;-61
2021/11/14 06:05:14;;;;;;;32.33;15.10;;;6.50;99.90;;;;;;5025231;28;20960;-62
2021/11/14 06:07:41;;;;;;;30.70;14.17;;;6.50;99.90;;;;;;5025209;28;20426;-62
2021/11/14 06:10:07;;;;;;;36.33;16.00;;;6.50;99.90;;;;;;5024971;28;20426;-62
2021/11/14 06:12:35;;;;;;;30.20;14.20;;;6.50;99.90;;;;;;5028353;28;20418;-62
2021/11/14 06:15:00;;;;;;;29.53;13.53;;;6.50;99.90;;;;;;5026202;28;20419;-61
2021/11/14 06:17:26;;;;;;;28.70;14.10;;;6.50;99.90;;;;;;5023495;28;20470;-62
2021/11/14 06:19:52;;;;;;;27.40;13.70;;;6.50;99.90;;;;;;5026648;28;20426;-62
2021/11/14 06:22:19;;;;;;;28.03;13.30;;;6.50;99.90;;;;;;5024488;28;20171;-63
2021/11/14 06:24:45;;;;;;;32.90;13.60;;;6.50;99.90;;;;;;5027911;28;20415;-62
2021/11/14 06:27:11;;;;;;;24.83;13.07;;;6.50;99.90;;;;;;5024704;28;20468;-61
2021/11/14 06:29:37;;;;;;;25.50;13.20;;;6.50;99.90;;;;;;5024116;28;20995;-62
2021/11/14 06:32:04;;;;;;;25.07;11.73;;;6.50;99.90;;;;;;5020071;28;20430;-62
2021/11/14 06:34:29;;;;;;;27.03;12.93;;;6.60;99.90;;;;;;5021342;28;20183;-61
2021/11/14 06:36:55;;;;;;;28.67;13.40;;;6.60;99.90;;;;;;5020740;28;20543;-61
2021/11/14 06:39:21;;;;;;;28.33;13.47;;;6.60;99.90;;;;;;5024975;28;20254;-62
2021/11/14 06:41:47;;;;;;;25.33;13.53;;;6.60;99.90;;;;;;5025619;28;20246;-62
2021/11/14 06:44:13;;;;;;;32.03;14.10;;;6.60;99.90;;;;;;5025933;28;20426;-62
2021/11/14 06:46:38;;;;;;;31.07;14.60;;;6.50;99.90;;;;;;5020556;28;20266;-61
2021/11/14 06:49:05;;;;;;;29.77;12.73;;;6.60;99.90;;;;;;5028991;28;20180;-62
2021/11/14 06:51:31;;;;;;;32.00;14.07;;;6.50;99.90;;;;;;5027896;28;20179;-62
2021/11/14 06:53:57;;;;;;;32.30;14.20;;;6.50;99.90;;;;;;5027850;28;20561;-62
2021/11/14 06:56:23;;;;;;;34.23;14.10;;;6.50;99.90;;;;;;5031523;28;20513;-62
2021/11/14 06:58:49;;;;;;;28.27;12.30;;;6.50;99.90;;;;;;5028348;28;20493;-62
2021/11/14 07:01:14;;;;;;;28.73;12.87;;;6.50;99.90;;;;;;5028971;28;20468;-62
2021/11/14 07:03:40;;;;;;;30.53;12.43;;;6.60;99.90;;;;;;5029518;28;20411;-61
2021/11/14 07:06:06;;;;;;;23.83;12.20;;;6.50;99.90;;;;;;5028441;28;20187;-62
2021/11/14 07:08:32;;;;;;;28.67;12.97;;;6.50;99.90;;;;;;5031509;28;20172;-62
2021/11/14 07:10:58;;;;;;;27.23;11.53;;;6.60;99.90;;;;;;5027170;28;20199;-62
2021/11/14 07:13:23;;;;;;;26.80;12.60;;;6.60;99.90;;;;;;5029708;28;20954;-61
2021/11/14 07:15:49;;;;;;;30.97;13.20;;;6.60;99.90;;;;;;5026609;28;20192;-62
2021/11/14 07:18:14;;;;;;;26.30;11.80;;;6.60;99.90;;;;;;5029226;28;20699;-61
2021/11/14 07:20:40;;;;;;;25.10;11.70;;;6.60;99.90;;;;;;5026892;28;20172;-61
2021/11/14 07:23:07;;;;;;;24.23;12.00;;;6.60;99.90;;;;;;5026265;28;20168;-62
2021/11/14 07:25:33;;;;;;;25.07;11.00;;;6.60;99.90;;;;;;5026109;28;20438;-63
2021/11/14 07:27:59;;;;;;;26.30;11.30;;;6.60;99.90;;;;;;5026641;28;20438;-62
2021/11/14 07:30:25;;;;;;;27.13;11.53;;;6.70;99.90;;;;;;5021661;28;21024;-62
2021/11/14 07:32:52;;;;;;;23.30;10.33;;;6.70;99.90;;;;;;5026746;28;20415;-61
2021/11/14 07:35:19;;;;;;;25.77;11.70;;;6.70;99.90;;;;;;5027378;28;20487;-62
2021/11/14 07:37:46;;;;;;;25.77;10.83;;;6.70;99.90;;;;;;5027821;28;21005;-62
2021/11/14 07:40:15;;;;;;;25.67;11.60;;;6.80;99.90;;;;;;5022191;28;20837;-60
2021/11/14 07:42:44;;;;;;;22.87;10.90;;;6.80;99.90;;;;;;5023913;28;20423;-60
2021/11/14 07:45:12;;;;;;;24.47;11.07;;;6.80;99.90;;;;;;5027805;28;20415;-60
2021/11/14 07:47:38;;;;;;;24.47;11.20;;;6.80;99.90;;;;;;5019813;28;20900;-62
2021/11/14 07:50:04;;;;;;;27.33;11.90;;;6.80;99.90;;;;;;5027251;28;20449;-62
2021/11/14 07:52:31;;;;;;;22.43;10.90;;;6.80;99.90;;;;;;5026983;28;20576;-61
2021/11/14 07:54:58;;;;;;;21.43;9.33;;;6.90;99.90;;;;;;5026170;28;20442;-60
2021/11/14 07:57:25;;;;;;;24.40;10.33;;;6.90;99.90;;;;;;5023113;28;20524;-61
2021/11/14 07:59:50;;;;;;;22.07;9.33;;;6.90;99.90;;;;;;5027397;28;20461;-61
2021/11/14 08:02:16;;;;;;;24.60;10.00;;;6.90;99.90;;;;;;5023964;28;20461;-61
2021/11/14 08:04:42;;;;;;;18.33;8.83;;;6.90;99.90;;;;;;5027860;28;20182;-62
2021/11/14 08:07:08;;;;;;;19.93;9.63;;;6.90;99.90;;;;;;5013167;28;20457;-62
2021/11/14 08:09:35;;;;;;;20.50;8.80;;;6.90;99.90;;;;;;5023924;28;20439;-60
2021/11/14 08:12:01;;;;;;;17.23;8.63;;;6.90;99.90;;;;;;5023967;28;20274;-62
2021/11/14 08:14:27;;;;;;;16.53;9.23;;;6.90;99.90;;;;;;5021684;28;20517;-62
2021/11/14 08:16:52;;;;;;;16.63;8.10;;;6.90;99.90;;;;;;5027773;28;20682;-61
2021/11/14 08:19:18;;;;;;;15.33;8.30;;;6.90;99.90;;;;;;5026272;28;20792;-60
2021/11/14 08:21:43;;;;;;;16.03;7.80;;;7.00;99.90;;;;;;5028575;28;20172;-61
2021/11/14 08:24:09;;;;;;;13.20;7.50;;;7.00;99.90;;;;;;5024290;28;20172;-61
2021/11/14 08:26:35;;;;;;;17.50;8.63;;;7.00;99.90;;;;;;5028385;28;20257;-61
2021/11/14 08:29:00;;;;;;;14.17;7.90;;;7.10;99.90;;;;;;5027557;28;20230;-60
2021/11/14 08:31:27;;;;;;;17.30;8.90;;;7.10;99.90;;;;;;5026272;28;20270;-63
2021/11/14 08:33:53;;;;;;;18.77;9.20;;;7.10;99.90;;;;;;5019697;28;20176;-61
2021/11/14 08:36:18;;;;;;;22.27;8.50;;;7.10;99.90;;;;;;5019955;28;20470;-62
2021/11/14 08:38:44;;;;;;;24.17;10.00;;;7.20;99.90;;;;;;5025736;28;20203;-61
2021/11/14 08:41:11;;;;;;;19.80;9.83;;;7.20;99.90;;;;;;5022371;28;20204;-61
2021/11/14 08:43:38;;;;;;;19.37;9.33;;;7.30;99.90;;;;;;5028340;28;20500;-62
2021/11/14 08:46:05;;;;;;;17.80;9.07;;;7.30;99.90;;;;;;5024079;28;20474;-61
2021/11/14 08:48:30;;;;;;;23.50;9.93;;;7.30;99.90;;;;;;5040897;28;20434;-61
2021/11/14 08:50:56;;;;;;;16.07;8.27;;;7.30;99.90;;;;;;5023651;28;20438;-61
2021/11/14 08:53:23;;;;;;;19.10;9.07;;;7.30;99.90;;;;;;5023222;28;20176;-62
2021/11/14 08:55:51;;;;;;;18.67;10.10;;;7.30;99.90;;;;;;5018359;28;20203;-60
2021/11/14 08:58:17;;;;;;;21.50;10.63;;;7.30;99.90;;;;;;5018453;28;20466;-60
2021/11/14 09:00:43;;;;;;;22.07;10.47;;;7.20;99.90;;;;;;5021543;28;20441;-58
2021/11/14 09:03:08;;;;;;;23.07;11.80;;;7.30;99.90;;;;;;5020425;28;20184;-59
2021/11/14 09:05:34;;;;;;;30.37;13.63;;;7.30;99.90;;;;;;5016667;28;20284;-58
2021/11/14 09:08:02;;;;;;;30.77;15.03;;;7.30;99.90;;;;;;5026960;28;20322;-60
2021/11/14 09:10:28;;;;;;;29.70;14.40;;;7.30;99.90;;;;;;5024932;28;20176;-60
2021/11/14 09:12:54;;;;;;;29.00;13.80;;;7.40;99.90;;;;;;5022674;28;20438;-60
2021/11/14 09:15:22;;;;;;;29.17;13.43;;;7.40;99.90;;;;;;5022342;28;20530;-61
2021/11/14 09:17:47;;;;;;;36.20;13.90;;;7.40;99.90;;;;;;5021548;28;20462;-61
2021/11/14 09:20:13;;;;;;;34.90;15.60;;;7.40;99.90;;;;;;5024207;28;20430;-63
2021/11/14 09:22:39;;;;;;;30.87;15.00;;;7.50;99.90;;;;;;5019130;28;20218;-58
2021/11/14 09:25:07;;;;;;;27.57;12.90;;;7.50;99.90;;;;;;5019978;28;20226;-61
2021/11/14 09:27:33;;;;;;;32.37;14.73;;;7.50;99.90;;;;;;5023725;28;20183;-61
2021/11/14 09:29:58;;;;;;;24.40;12.50;;;7.50;99.90;;;;;;5013569;28;20539;-63
2021/11/14 09:32:24;;;;;;;28.30;13.87;;;7.40;99.90;;;;;;5021465;28;20199;-61
2021/11/14 09:34:50;;;;;;;26.80;12.90;;;7.50;99.90;;;;;;5017873;28;20187;-60
2021/11/14 09:37:16;;;;;;;28.57;13.00;;;7.50;99.90;;;;;;5026484;28;20219;-61
2021/11/14 09:39:42;;;;;;;24.77;12.50;;;7.50;99.90;;;;;;5022514;28;20497;-63
2021/11/14 09:42:08;;;;;;;33.73;14.73;;;7.50;99.90;;;;;;5015418;28;20430;-60
2021/11/14 09:44:34;;;;;;;30.07;12.70;;;7.50;99.90;;;;;;5019026;28;20186;-61
2021/11/14 09:47:01;;;;;;;28.93;13.17;;;7.50;99.90;;;;;;5021588;28;20210;-61
2021/11/14 09:49:30;;;;;;;31.33;12.90;;;7.60;99.90;;;;;;5025113;28;20179;-61
2021/11/14 09:51:57;;;;;;;29.77;12.83;;;7.70;99.90;;;;;;5019548;28;20434;-61
2021/11/14 09:54:25;;;;;;;28.57;13.53;;;7.70;99.90;;;;;;5020998;28;20451;-61
2021/11/14 09:56:52;;;;;;;30.77;13.30;;;7.70;99.90;;;;;;5015794;28;20960;-62
2021/11/14 09:59:18;;;;;;;27.30;13.63;;;7.80;99.90;;;;;;5022040;28;20443;-60
2021/11/14 10:01:46;;;;;;;24.80;13.20;;;7.80;99.90;;;;;;5014591;28;20437;-61
2021/11/14 10:04:12;;;;;;;30.00;14.03;;;7.80;99.90;;;;;;5020185;28;20441;-61
2021/11/14 10:06:38;;;;;;;29.03;13.63;;;7.80;99.90;;;;;;5021178;28;20546;-64
2021/11/14 10:09:06;;;;;;;30.70;14.30;;;7.80;99.90;;;;;;5018062;28;20199;-62
2021/11/14 10:11:40;;;;;;;26.90;12.80;;;7.80;99.90;;;;;;5026210;28;20180;-63
2021/11/14 10:14:07;;;;;;;24.80;13.03;;;7.80;99.90;;;;;;5018807;28;20536;-62
2021/11/14 10:16:35;;;;;;;24.57;11.87;;;7.80;99.90;;;;;;5025921;28;20454;-62
2021/11/14 10:19:12;;;;;;;21.60;11.80;;;7.80;99.90;;;;;;5021635;28;20463;-61
2021/11/14 10:21:40;;;;;;;24.07;10.80;;;7.70;99.90;;;;;;5019230;28;20438;-62
2021/11/14 10:24:10;;;;;;;21.17;10.50;;;7.70;99.90;;;;;;5019313;28;20430;-62
2021/11/14 10:26:36;;;;;;;24.33;11.40;;;7.70;99.90;;;;;;5023518;28;20860;-61
2021/11/14 10:29:11;;;;;;;23.87;12.07;;;7.60;99.90;;;;;;5017101;28;21148;-61
2021/11/14 10:31:38;;;;;;;23.47;10.50;;;7.60;99.90;;;;;;5011360;28;20517;-62
2021/11/14 10:34:04;;;;;;;25.00;11.20;;;7.60;99.90;;;;;;5014039;28;20735;-61
2021/11/14 10:36:32;;;;;;;21.60;10.77;;;7.70;99.90;;;;;;5018649;28;20477;-62
2021/11/14 10:39:08;;;;;;;21.43;11.53;;;7.80;99.90;;;;;;5013863;28;20689;-62
2021/11/14 10:41:41;;;;;;;24.73;10.30;;;7.80;99.90;;;;;;5014073;28;20434;-60
2021/11/14 10:44:15;;;;;;;23.50;11.47;;;7.70;99.90;;;;;;5011744;28;20427;-62
2021/11/14 10:46:41;;;;;;;21.53;10.27;;;7.80;99.90;;;;;;5018792;28;20446;-61
2021/11/14 10:49:09;;;;;;;23.97;11.53;;;7.80;99.90;;;;;;5019313;28;20474;-59
2021/11/14 10:51:37;;;;;;;21.60;11.70;;;7.80;99.90;;;;;;5023355;28;20851;-62
2021/11/14 10:54:03;;;;;;;22.30;10.43;;;7.80;99.90;;;;;;5017952;28;20456;-61
2021/11/14 10:56:28;;;;;;;20.57;11.57;;;7.80;99.90;;;;;;5014613;28;20458;-62
2021/11/14 10:58:54;;;;;;;23.43;11.17;;;7.80;99.90;;;;;;5020659;28;20844;-61
2021/11/14 11:01:20;;;;;;;23.10;11.47;;;7.80;99.90;;;;;;5025025;28;20906;-61
2021/11/14 11:03:51;;;;;;;26.43;12.50;;;7.80;99.90;;;;;;5018224;28;21051;-62
2021/11/14 11:06:28;;;;;;;21.17;11.37;;;7.90;99.90;;;;;;5017866;28;20464;-63
2021/11/14 11:09:02;;;;;;;20.97;10.73;;;7.90;99.90;;;;;;5019475;28;20441;-61
2021/11/14 11:11:28;;;;;;;21.50;10.60;;;7.90;99.90;;;;;;5021055;28;20425;-62
2021/11/14 11:13:55;;;;;;;24.20;11.23;;;7.90;99.90;;;;;;5017264;28;20434;-62
2021/11/14 11:16:27;;;;;;;24.37;13.00;;;8.00;99.90;;;;;;5018936;28;21068;-62
2021/11/14 11:18:56;;;;;;;20.30;9.97;;;8.00;99.90;;;;;;5020550;28;20451;-59
2021/11/14 11:21:21;;;;;;;20.83;11.03;;;8.10;99.90;;;;;;5016394;28;20431;-62
2021/11/14 11:23:47;;;;;;;24.17;11.10;;;8.20;99.90;;;;;;5015029;28;20846;-60
2021/11/14 11:26:17;;;;;;;17.67;10.37;;;8.20;99.90;;;;;;5023210;28;22330;-61
2021/11/14 11:28:46;;;;;;;22.33;11.63;;;8.30;99.90;;;;;;5026923;28;20191;-60
2021/11/14 11:31:17;;;;;;;22.03;10.63;;;8.40;99.90;;;;;;5022502;28;20465;-59
2021/11/14 11:33:46;;;;;;;17.77;9.20;;;8.40;99.90;;;;;;5025071;28;20435;-62
2021/11/14 11:36:13;;;;;;;22.03;10.67;;;8.40;99.90;;;;;;5025378;28;20454;-62
2021/11/14 11:38:45;;;;;;;23.83;11.03;;;8.50;99.90;;;;;;5018223;28;20490;-62
2021/11/14 11:41:15;;;;;;;21.63;10.40;;;8.50;99.90;;;;;;5021968;28;20866;-61
2021/11/14 11:43:42;;;;;;;21.53;10.90;;;8.50;99.90;;;;;;5027768;28;20449;-62
2021/11/14 11:46:11;;;;;;;20.87;10.53;;;8.50;99.90;;;;;;5021465;28;20549;-61
2021/11/14 11:48:43;;;;;;;24.87;11.00;;;8.50;99.90;;;;;;5019553;28;20530;-63
2021/11/14 11:51:28;;;;;;;20.50;10.20;;;8.40;99.90;;;;;;5025246;28;20522;-63
2021/11/14 11:53:58;;;;;;;21.40;11.27;;;8.40;99.90;;;;;;5019496;28;20800;-62
2021/11/14 11:56:35;;;;;;;24.00;10.53;;;8.40;99.90;;;;;;5016520;28;21173;-62
2021/11/14 11:59:11;;;;;;;20.50;11.07;;;8.50;99.90;;;;;;5023413;28;20506;-61
2021/11/14 12:01:45;;;;;;;18.93;10.10;;;8.40;99.90;;;;;;5033653;23;21164;-59
2021/11/14 12:04:42;;;;;;;20.40;10.40;;;8.40;99.90;;;;;;5013538;28;20426;-58
2021/11/14 12:07:09;;;;;;;19.50;10.27;;;8.40;99.90;;;;;;5010541;28;20431;-59
2021/11/14 12:09:55;;;;;;;19.67;10.77;;;8.40;99.90;;;;;;5020253;28;20432;-59
2021/11/14 12:12:34;;;;;;;18.33;9.87;;;8.40;99.90;;;;;;5011833;28;20545;-59
2021/11/14 12:15:16;;;;;;;20.67;10.40;;;8.30;99.90;;;;;;5026954;28;20794;-60
2021/11/14 12:17:51;;;;;;;17.97;10.20;;;8.30;99.90;;;;;;5021425;28;20474;-57
2021/11/14 12:20:19;;;;;;;16.30;9.60;;;8.30;99.90;;;;;;5007230;28;20431;-59
2021/11/14 12:22:48;;;;;;;20.30;9.77;;;8.30;99.90;;;;;;5011710;28;20485;-58
2021/11/14 12:25:23;;;;;;;19.97;10.60;;;8.20;99.90;;;;;;5008685;28;20431;-58
2021/11/14 12:28:05;;;;;;;17.53;10.37;;;8.20;99.90;;;;;;5014689;28;20483;-58
2021/11/14 12:30:33;;;;;;;17.23;9.63;;;8.20;99.90;;;;;;5012007;28;20957;-60
2021/11/14 12:32:59;;;;;;;15.00;8.83;;;8.20;99.90;;;;;;5016744;28;20827;-58
2021/11/14 12:35:31;;;;;;;15.70;8.97;;;8.20;99.90;;;;;;5005726;28;20434;-58
2021/11/14 12:38:00;;;;;;;16.77;8.73;;;8.20;99.90;;;;;;5012914;28;20447;-59